Time;durP1;ratioP1;P1;durP2;ratioP2;P2;SDS_P1;SDS_P2;PMS_P1;PMS_P2;Temp;Humidity;BMP_temperature;BMP_pressure;BME280_temperature;BME280_humidity;BME280_pressure;Samples;Min_cycle;Max_cycle;Signal;HPM_P1;HPM_P2
2021/10/21 00:02:06;;;;;;;;;;;;;;;15.77;63.26;99044.21;1730202;82;20159;-80
2021/10/21 00:04:36;;;;;;;;;;;;;;;15.74;63.33;99032.64;1713859;82;20204;-79
2021/10/21 00:07:01;;;;;;;;;;;;;;;15.69;63.32;99045.80;1729994;81;20166;-79
2021/10/21 00:09:30;;;;;;;;;;;;;;;15.71;63.52;99041.05;1707574;82;21018;-81
2021/10/21 00:11:58;;;;;;;;;;;;;;;15.65;63.57;99028.62;1736970;82;20159;-80
2021/10/21 00:14:23;;;;;;;;;;;;;;;15.71;63.44;99014.44;1737097;82;20170;-79
2021/10/21 00:16:49;;;;;;;;;;;;;;;15.66;63.50;99013.45;1735772;82;20335;-79
2021/10/21 00:19:14;;;;;;;;;;;;;;;15.56;63.61;99011.28;1739350;82;20168;-80
2021/10/21 00:21:40;;;;;;;;;;;;;;;15.62;63.71;99008.56;1710705;81;20959;-80
2021/10/21 00:24:05;;;;;;;;;;;;;;;15.57;63.72;99004.95;1740063;82;20230;-80
2021/10/21 00:26:31;;;;;;;;;;;;;;;15.61;63.66;99004.30;1709430;82;20593;-79
2021/10/21 00:28:57;;;;;;;;;;;;;;;15.62;63.71;99004.58;1736191;81;20358;-79
2021/10/21 00:31:25;;;;;;;;;;;;;;;15.57;63.88;98991.64;1736895;81;20170;-88
2021/10/21 00:33:50;;;;;;;;;;;;;;;15.52;63.78;99002.09;1736087;81;20162;-81
2021/10/21 00:36:21;;;;;;;;;;;;;;;15.53;63.97;99009.86;1737026;82;20699;-80
2021/10/21 00:38:47;;;;;;;;;;;;;;;15.48;64.15;99004.91;1706775;82;20156;-82
2021/10/21 00:41:13;;;;;;;;;;;;;;;15.44;63.99;99007.17;1735053;82;20246;-82
2021/10/21 00:43:41;;;;;;;;;;;;;;;15.47;64.30;99004.60;1736540;82;20147;-82
2021/10/21 00:46:09;;;;;;;;;;;;;;;15.43;64.44;99001.05;1736401;82;21081;-82
2021/10/21 00:48:36;;;;;;;;;;;;;;;15.46;64.46;98989.16;1736324;82;20223;-81
2021/10/21 00:51:09;;;;;;;;;;;;;;;15.41;64.46;98979.17;1741561;81;20138;-82
2021/10/21 00:53:36;;;;;;;;;;;;;;;15.36;64.83;98982.98;1736880;81;20154;-81
2021/10/21 00:56:04;;;;;;;;;;;;;;;15.37;64.62;98964.66;1741955;82;20382;-82
2021/10/21 00:58:32;;;;;;;;;;;;;;;15.38;64.62;98964.14;1711482;81;20951;-82
2021/10/21 01:01:01;;;;;;;;;;;;;;;15.44;64.60;98954.80;1737693;81;20440;-83
2021/10/21 01:03:28;;;;;;;;;;;;;;;15.49;64.30;98950.65;1737637;82;20185;-83
2021/10/21 01:05:55;;;;;;;;;;;;;;;15.48;64.38;98947.71;1736826;81;20472;-81
2021/10/21 01:08:21;;;;;;;;;;;;;;;15.48;64.39;98945.05;1738843;82;20158;-81
2021/10/21 01:10:47;;;;;;;;;;;;;;;15.55;64.20;98947.95;1732128;82;21151;-82
2021/10/21 01:13:14;;;;;;;;;;;;;;;15.55;64.01;98941.80;1731035;82;20312;-81
2021/10/21 01:15:40;;;;;;;;;;;;;;;15.57;63.81;98933.09;1736871;82;20134;-81
2021/10/21 01:18:07;;;;;;;;;;;;;;;15.56;63.86;98934.13;1733554;82;20170;-82
2021/10/21 01:20:33;;;;;;;;;;;;;;;15.40;64.01;98937.62;1728877;82;20525;-81
2021/10/21 01:22:58;;;;;;;;;;;;;;;15.43;64.06;98937.19;1733566;82;21165;-82
2021/10/21 01:25:25;;;;;;;;;;;;;;;15.45;64.09;98939.64;1731258;81;20142;-82
2021/10/21 01:27:51;;;;;;;;;;;;;;;15.41;63.95;98932.62;1729220;82;20174;-80
2021/10/21 01:30:19;;;;;;;;;;;;;;;15.46;63.87;98936.45;1729258;82;20123;-82
2021/10/21 01:32:45;;;;;;;;;;;;;;;15.40;63.81;98920.34;1708995;82;20285;-82
2021/10/21 01:35:14;;;;;;;;;;;;;;;15.40;64.07;98920.34;1735070;82;21085;-82
2021/10/21 01:37:41;;;;;;;;;;;;;;;15.36;64.02;98913.81;1732596;82;20150;-82
2021/10/21 01:40:10;;;;;;;;;;;;;;;15.37;64.05;98910.66;1730372;81;20204;-83
2021/10/21 01:42:39;;;;;;;;;;;;;;;15.36;64.18;98913.81;1728693;81;20148;-83
2021/10/21 01:45:17;;;;;;;;;;;;;;;15.43;63.86;98909.27;1706902;82;20531;-83
2021/10/21 01:47:45;;;;;;;;;;;;;;;15.39;63.83;98900.60;1730429;80;21195;-82
2021/10/21 01:50:15;;;;;;;;;;;;;;;15.33;63.95;98916.91;1726650;81;20795;-81
2021/10/21 01:52:42;;;;;;;;;;;;;;;15.31;64.13;98905.69;1730147;82;20114;-82
2021/10/21 01:55:09;;;;;;;;;;;;;;;15.33;64.20;98909.45;1710776;82;20253;-82
2021/10/21 01:57:37;;;;;;;;;;;;;;;15.30;64.02;98904.05;1731951;82;20484;-83
2021/10/21 02:00:09;;;;;;;;;;;;;;;15.35;64.14;98904.23;1730387;82;20130;-82
2021/10/21 02:02:35;;;;;;;;;;;;;;;15.22;64.13;98899.00;1729887;82;20224;-81
2021/10/21 02:05:01;;;;;;;;;;;;;;;15.26;64.24;98908.19;1709410;82;20130;-82
2021/10/21 02:07:31;;;;;;;;;;;;;;;15.29;64.27;98910.41;1729996;82;20104;-82
2021/10/21 02:09:58;;;;;;;;;;;;;;;15.38;64.14;98895.81;1729892;82;20188;-80
2021/10/21 02:12:26;;;;;;;;;;;;;;;15.36;64.15;98897.05;1709733;82;20184;-83
2021/10/21 02:14:55;;;;;;;;;;;;;;;15.28;64.31;98892.81;1733446;81;20323;-82
2021/10/21 02:17:25;;;;;;;;;;;;;;;15.30;64.42;98885.42;1728972;82;20173;-82
2021/10/21 02:19:52;;;;;;;;;;;;;;;15.29;64.56;98882.48;1730199;81;20121;-80
2021/10/21 02:22:19;;;;;;;;;;;;;;;15.20;64.69;98869.97;1731354;82;20173;-80
2021/10/21 02:24:47;;;;;;;;;;;;;;;15.26;64.69;98867.77;1733041;81;22005;-82
2021/10/21 02:27:14;;;;;;;;;;;;;;;15.23;64.83;98858.09;1732465;80;20168;-81
2021/10/21 02:29:40;;;;;;;;;;;;;;;15.16;64.88;98862.12;1732843;82;20243;-82
2021/10/21 02:32:05;;;;;;;;;;;;;;;15.12;65.26;98869.42;1735020;82;20311;-82
2021/10/21 02:34:31;;;;;;;;;;;;;;;15.14;65.43;98865.52;1732768;82;20176;-82
2021/10/21 02:36:58;;;;;;;;;;;;;;;15.12;65.32;98850.80;1730253;82;21942;-82
2021/10/21 02:39:26;;;;;;;;;;;;;;;15.07;65.58;98853.62;1730543;82;20166;-83
2021/10/21 02:41:56;;;;;;;;;;;;;;;15.08;65.64;98842.46;1715143;82;20153;-81
2021/10/21 02:44:22;;;;;;;;;;;;;;;15.10;65.46;98843.57;1728932;82;20165;-83
2021/10/21 02:46:50;;;;;;;;;;;;;;;15.08;65.69;98853.90;1731620;82;20513;-83
2021/10/21 02:49:21;;;;;;;;;;;;;;;15.22;65.41;98841.83;1728558;82;20537;-82
2021/10/21 02:51:46;;;;;;;;;;;;;;;15.13;65.63;98833.83;1733013;81;20186;-82
2021/10/21 02:54:12;;;;;;;;;;;;;;;15.03;65.91;98829.82;1732693;81;20894;-80
2021/10/21 02:56:40;;;;;;;;;;;;;;;14.99;66.31;98828.64;1709012;82;20189;-82
2021/10/21 02:59:07;;;;;;;;;;;;;;;15.03;66.25;98823.17;1728050;82;20171;-81
2021/10/21 03:01:36;;;;;;;;;;;;;;;15.12;66.03;98822.89;1735881;81;21000;-81
2021/10/21 03:04:02;;;;;;;;;;;;;;;15.14;65.81;98822.17;1731153;81;20295;-82
2021/10/21 03:06:28;;;;;;;;;;;;;;;15.10;65.98;98824.96;1729023;81;20205;-82
2021/10/21 03:08:54;;;;;;;;;;;;;;;15.08;65.95;98818.01;1734426;81;20448;-81
2021/10/21 03:11:20;;;;;;;;;;;;;;;14.88;66.43;98802.25;1709805;82;20215;-81
2021/10/21 03:13:45;;;;;;;;;;;;;;;14.81;67.03;98807.33;1711702;81;22583;-82
2021/10/21 03:16:12;;;;;;;;;;;;;;;14.80;67.09;98802.50;1730751;81;20252;-81
2021/10/21 03:18:38;;;;;;;;;;;;;;;14.81;67.20;98802.02;1727947;81;20130;-81
2021/10/21 03:21:05;;;;;;;;;;;;;;;14.79;67.42;98801.39;1728362;82;20416;-81
2021/10/21 03:23:30;;;;;;;;;;;;;;;14.71;67.74;98800.66;1730850;82;20170;-81
2021/10/21 03:25:56;;;;;;;;;;;;;;;14.72;67.79;98802.78;1711344;82;21312;-82
2021/10/21 03:28:22;;;;;;;;;;;;;;;14.67;67.98;98799.45;1728634;82;20180;-80
2021/10/21 03:30:48;;;;;;;;;;;;;;;14.66;68.13;98791.16;1734002;82;21016;-82
2021/10/21 03:33:17;;;;;;;;;;;;;;;14.61;68.25;98788.36;1731130;82;20763;-82
2021/10/21 03:35:49;;;;;;;;;;;;;;;14.61;68.42;98784.37;1730335;81;20246;-81
2021/10/21 03:38:17;;;;;;;;;;;;;;;14.56;68.57;98788.16;1733206;82;20638;-80
2021/10/21 03:40:44;;;;;;;;;;;;;;;14.53;68.46;98781.95;1725731;81;20204;-82
2021/10/21 03:43:09;;;;;;;;;;;;;;;14.67;68.23;98780.84;1734314;82;20214;-82
2021/10/21 03:45:36;;;;;;;;;;;;;;;14.66;68.28;98771.24;1713040;82;21074;-81
2021/10/21 03:48:01;;;;;;;;;;;;;;;14.69;68.11;98768.15;1723623;81;20276;-79
2021/10/21 03:50:29;;;;;;;;;;;;;;;14.69;68.01;98754.86;1732544;82;21035;-81
2021/10/21 03:52:54;;;;;;;;;;;;;;;14.65;68.06;98740.41;1729674;81;20502;-81
2021/10/21 03:55:22;;;;;;;;;;;;;;;14.51;68.43;98732.20;1734198;81;20218;-82
2021/10/21 03:57:48;;;;;;;;;;;;;;;14.55;68.48;98728.09;1734420;82;20134;-82
2021/10/21 04:00:18;;;;;;;;;;;;;;;14.59;68.42;98723.97;1730719;82;20112;-82
2021/10/21 04:02:44;;;;;;;;;;;;;;;14.63;68.37;98710.56;1731470;82;21102;-82
2021/10/21 04:05:12;;;;;;;;;;;;;;;14.62;68.42;98707.63;1731103;82;20200;-82
2021/10/21 04:07:38;;;;;;;;;;;;;;;14.60;68.53;98702.20;1734903;80;20178;-81
2021/10/21 04:10:04;;;;;;;;;;;;;;;14.56;68.65;98695.19;1732871;82;20292;-82
2021/10/21 04:12:31;;;;;;;;;;;;;;;14.50;69.02;98706.69;1720014;81;20913;-79
2021/10/21 04:15:01;;;;;;;;;;;;;;;14.52;68.93;98705.94;1716408;82;21198;-81
2021/10/21 04:17:29;;;;;;;;;;;;;;;14.47;69.12;98711.10;1716769;82;20169;-83
2021/10/21 04:19:57;;;;;;;;;;;;;;;14.47;69.09;98712.42;1717164;82;20570;-83
2021/10/21 04:22:24;;;;;;;;;;;;;;;14.43;69.17;98713.87;1713841;82;20499;-82
2021/10/21 04:24:51;;;;;;;;;;;;;;;14.45;69.31;98707.83;1711671;82;20522;-82
2021/10/21 04:27:17;;;;;;;;;;;;;;;14.39;69.52;98706.04;1715833;82;21031;-84
2021/10/21 04:29:44;;;;;;;;;;;;;;;14.40;69.43;98693.06;1712570;82;20391;-82
2021/10/21 04:32:09;;;;;;;;;;;;;;;14.36;69.71;98693.50;1718531;82;20458;-82
2021/10/21 04:34:36;;;;;;;;;;;;;;;14.43;69.56;98682.01;1725462;82;20137;-84
2021/10/21 04:37:04;;;;;;;;;;;;;;;14.41;69.60;98678.77;1716217;82;20224;-82
2021/10/21 04:39:34;;;;;;;;;;;;;;;14.39;69.54;98664.38;1715852;82;21871;-85
2021/10/21 04:42:01;;;;;;;;;;;;;;;14.45;69.50;98652.05;1712817;82;20197;-83
2021/10/21 04:44:27;;;;;;;;;;;;;;;14.47;69.35;98660.63;1718127;82;20180;-83
2021/10/21 04:46:54;;;;;;;;;;;;;;;14.49;69.33;98658.56;1716043;82;20244;-85
2021/10/21 04:49:20;;;;;;;;;;;;;;;14.52;69.24;98638.20;1716730;82;20163;-86
2021/10/21 04:51:49;;;;;;;;;;;;;;;14.59;69.10;98637.63;1713389;82;21077;-86
2021/10/21 04:54:15;;;;;;;;;;;;;;;14.56;69.22;98624.80;1718599;82;20197;-82
2021/10/21 04:56:45;;;;;;;;;;;;;;;14.55;69.21;98620.50;1721832;81;20226;-82
2021/10/21 04:59:12;;;;;;;;;;;;;;;14.58;69.07;98603.32;1720648;81;20165;-84
2021/10/21 05:01:41;;;;;;;;;;;;;;;14.63;68.92;98592.34;1711241;82;20520;-86
2021/10/21 05:04:09;;;;;;;;;;;;;;;14.67;68.88;98604.69;1713306;82;21088;-82
2021/10/21 05:06:38;;;;;;;;;;;;;;;14.62;69.00;98615.14;1719587;82;20146;-86
2021/10/21 05:09:05;;;;;;;;;;;;;;;14.56;68.85;98604.87;1715548;82;20217;-81
2021/10/21 05:11:31;;;;;;;;;;;;;;;14.55;69.24;98609.88;1713738;81;20526;-81
2021/10/21 05:13:57;;;;;;;;;;;;;;;14.58;69.17;98614.75;1692904;82;20507;-82
2021/10/21 05:16:24;;;;;;;;;;;;;;;14.63;68.87;98620.23;1716802;82;21052;-81
2021/10/21 05:18:53;;;;;;;;;;;;;;;14.71;68.84;98622.63;1720063;82;20173;-81
2021/10/21 05:21:19;;;;;;;;;;;;;;;14.75;68.66;98624.84;1720808;82;20357;-83
2021/10/21 05:23:44;;;;;;;;;;;;;;;14.82;68.55;98622.41;1713516;82;21245;-84
2021/10/21 05:26:10;;;;;;;;;;;;;;;14.81;68.21;98617.31;1689187;82;20157;-85
2021/10/21 05:28:37;;;;;;;;;;;;;;;14.82;68.44;98610.95;1715280;82;21064;-82
2021/10/21 05:31:02;;;;;;;;;;;;;;;14.86;68.22;98604.16;1717718;82;20202;-81
2021/10/21 05:33:34;;;;;;;;;;;;;;;14.84;68.29;98604.91;1715476;82;20251;-81
2021/10/21 05:35:56;;;;;;;;;;;;;;;14.87;68.33;98604.47;1711853;82;20182;-82
2021/10/21 05:38:21;;;;;;;;;;;;;;;14.90;68.30;98606.68;1719244;81;20212;-82
2021/10/21 05:40:47;;;;;;;;;;;;;;;14.88;68.43;98603.41;1685670;82;21288;-83
2021/10/21 05:43:13;;;;;;;;;;;;;;;14.84;68.49;98600.92;1717738;82;20188;-80
2021/10/21 05:45:39;;;;;;;;;;;;;;;14.89;68.37;98603.72;1715960;82;20490;-79
2021/10/21 05:48:07;;;;;;;;;;;;;;;14.95;68.28;98605.48;1712987;82;20127;-79
2021/10/21 05:50:34;;;;;;;;;;;;;;;14.97;68.46;98604.73;1708505;82;20219;-80
2021/10/21 05:53:00;;;;;;;;;;;;;;;14.96;68.44;98595.16;1717364;82;21137;-81
2021/10/21 05:55:25;;;;;;;;;;;;;;;15.00;68.40;98589.67;1719025;82;20225;-78
2021/10/21 05:57:53;;;;;;;;;;;;;;;15.00;68.52;98584.36;1715025;82;20220;-78
2021/10/21 06:00:19;;;;;;;;;;;;;;;15.02;68.83;98584.97;1707334;82;20153;-81
2021/10/21 06:02:44;;;;;;;;;;;;;;;15.05;68.79;98583.16;1687713;82;20291;-90
2021/10/21 06:05:10;;;;;;;;;;;;;;;15.07;68.78;98587.75;1713081;82;21271;-81
2021/10/21 06:07:36;;;;;;;;;;;;;;;14.96;68.76;98559.27;1686284;82;20353;-80
2021/10/21 06:10:03;;;;;;;;;;;;;;;15.05;69.17;98577.84;1715022;82;20169;-79
2021/10/21 06:12:32;;;;;;;;;;;;;;;15.14;69.15;98575.70;1724337;82;20673;-80
2021/10/21 06:14:57;;;;;;;;;;;;;;;15.16;69.18;98576.80;1735001;82;20111;-81
2021/10/21 06:17:25;;;;;;;;;;;;;;;15.15;69.12;98569.35;1732528;82;22025;-81
2021/10/21 06:19:52;;;;;;;;;;;;;;;15.19;69.03;98567.05;1732223;82;20428;-81
2021/10/21 06:22:18;;;;;;;;;;;;;;;15.16;69.37;98567.49;1730812;81;20182;-78
2021/10/21 06:24:46;;;;;;;;;;;;;;;15.17;69.27;98551.84;1733319;81;20175;-81
2021/10/21 06:27:13;;;;;;;;;;;;;;;15.20;69.26;98539.42;1734179;81;20123;-80
2021/10/21 06:29:40;;;;;;;;;;;;;;;15.25;69.10;98542.21;1727459;82;22491;-81
2021/10/21 06:32:07;;;;;;;;;;;;;;;15.23;68.99;98538.45;1711338;82;20138;-80
2021/10/21 06:34:34;;;;;;;;;;;;;;;15.22;69.03;98542.13;1729109;82;20230;-81
2021/10/21 06:37:02;;;;;;;;;;;;;;;15.23;68.97;98537.64;1733621;82;20111;-81
2021/10/21 06:39:29;;;;;;;;;;;;;;;15.20;69.01;98539.42;1732162;81;20202;-81
2021/10/21 06:41:55;;;;;;;;;;;;;;;15.22;68.95;98538.14;1727536;82;22035;-81
2021/10/21 06:44:21;;;;;;;;;;;;;;;15.18;68.94;98534.83;1730392;82;20201;-79
2021/10/21 06:46:48;;;;;;;;;;;;;;;15.23;69.30;98534.98;1725661;82;20211;-82
2021/10/21 06:49:15;;;;;;;;;;;;;;;15.22;69.31;98526.17;1728926;82;20229;-82
2021/10/21 06:51:40;;;;;;;;;;;;;;;15.27;68.98;98542.78;1733431;81;20091;-81
2021/10/21 06:54:09;;;;;;;;;;;;;;;15.26;69.08;98535.86;1730552;81;22339;-81
2021/10/21 06:56:35;;;;;;;;;;;;;;;15.28;68.91;98532.45;1729940;80;20174;-80
2021/10/21 06:59:01;;;;;;;;;;;;;;;15.30;68.90;98530.36;1728073;82;20325;-80
2021/10/21 07:01:26;;;;;;;;;;;;;;;15.37;68.83;98532.42;1731635;82;20761;-80
2021/10/21 07:03:52;;;;;;;;;;;;;;;15.42;68.52;98523.76;1731785;81;20144;-81
2021/10/21 07:06:18;;;;;;;;;;;;;;;15.37;68.40;98539.07;1730429;82;21055;-80
2021/10/21 07:08:44;;;;;;;;;;;;;;;15.28;68.67;98537.77;1732282;82;20147;-77
2021/10/21 07:11:11;;;;;;;;;;;;;;;15.33;68.56;98544.54;1727045;81;20228;-80
2021/10/21 07:13:40;;;;;;;;;;;;;;;15.32;68.88;98555.41;1726723;82;20655;-78
2021/10/21 07:16:06;;;;;;;;;;;;;;;15.33;68.44;98557.84;1725194;81;20218;-80
2021/10/21 07:18:32;;;;;;;;;;;;;;;15.29;68.65;98564.66;1723966;81;20564;-80
2021/10/21 07:21:01;;;;;;;;;;;;;;;15.26;68.76;98565.12;1729490;81;20165;-80
2021/10/21 07:23:27;;;;;;;;;;;;;;;15.35;68.47;98574.41;1732736;82;20118;-79
2021/10/21 07:25:52;;;;;;;;;;;;;;;15.25;68.55;98571.46;1734595;82;20142;-79
2021/10/21 07:28:21;;;;;;;;;;;;;;;15.34;68.04;98567.45;1729943;82;20176;-79
2021/10/21 07:30:45;;;;;;;;;;;;;;;15.37;67.87;98570.98;1731033;82;20159;-78
2021/10/21 07:33:12;;;;;;;;;;;;;;;15.33;67.61;98567.67;1729624;81;20212;-79
2021/10/21 07:35:38;;;;;;;;;;;;;;;15.36;67.87;98565.89;1733152;82;20310;-80
2021/10/21 07:38:03;;;;;;;;;;;;;;;15.34;67.40;98554.16;1728471;82;20138;-78
2021/10/21 07:40:29;;;;;;;;;;;;;;;15.30;67.42;98547.66;1732319;82;20248;-79
2021/10/21 07:42:55;;;;;;;;;;;;;;;15.37;67.03;98543.59;1687264;82;21356;-79
2021/10/21 07:45:20;;;;;;;;;;;;;;;15.40;67.18;98545.27;1710829;82;20879;-79
2021/10/21 07:47:46;;;;;;;;;;;;;;;15.47;67.15;98539.03;1730844;81;20205;-79
2021/10/21 07:50:14;;;;;;;;;;;;;;;15.52;66.88;98528.52;1732992;82;20245;-80
2021/10/21 07:52:40;;;;;;;;;;;;;;;15.51;66.84;98542.88;1732229;82;20992;-80
2021/10/21 07:55:07;;;;;;;;;;;;;;;15.50;66.68;98534.06;1709114;82;21153;-79
2021/10/21 07:57:36;;;;;;;;;;;;;;;15.51;66.69;98530.91;1732124;82;20153;-78
2021/10/21 08:00:07;;;;;;;;;;;;;;;15.50;66.76;98526.61;1732763;81;20174;-78
2021/10/21 08:02:33;;;;;;;;;;;;;;;15.39;66.73;98543.63;1736657;81;20159;-78
2021/10/21 08:04:58;;;;;;;;;;;;;;;15.44;66.92;98516.35;1734385;81;20099;-78
2021/10/21 08:07:26;;;;;;;;;;;;;;;15.44;66.76;98511.86;1735589;81;21186;-79
2021/10/21 08:09:52;;;;;;;;;;;;;;;15.50;66.63;98519.95;1729512;82;20224;-80
2021/10/21 08:12:18;;;;;;;;;;;;;;;15.52;66.74;98523.19;1732917;81;20455;-79
2021/10/21 08:14:47;;;;;;;;;;;;;;;15.39;66.91;98521.02;1752051;81;20135;-80
2021/10/21 08:17:13;;;;;;;;;;;;;;;15.44;67.06;98513.69;1727065;81;20646;-80
2021/10/21 08:19:38;;;;;;;;;;;;;;;15.50;66.87;98504.80;1748599;81;21153;-79
2021/10/21 08:22:04;;;;;;;;;;;;;;;15.60;66.63;98497.07;1750234;81;20153;-80
2021/10/21 08:24:30;;;;;;;;;;;;;;;15.64;66.16;98494.75;1752222;81;21024;-80
2021/10/21 08:26:55;;;;;;;;;;;;;;;15.56;66.55;98516.39;1726181;81;20193;-81
2021/10/21 08:29:24;;;;;;;;;;;;;;;15.54;66.65;98515.81;1753767;80;21302;-77
2021/10/21 08:32:01;;;;;;;;;;;;;;;15.34;67.55;98522.23;1750380;80;21847;-79
2021/10/21 08:34:22;;;;;;;;;;;;;;;15.30;67.95;98522.39;1750792;81;21021;-80
2021/10/21 08:36:49;;;;;;;;;;;;;;;15.38;68.89;98527.41;1749406;81;20180;-79
2021/10/21 08:39:14;;;;;;;;;;;;;;;15.30;69.87;98529.56;1752263;81;20287;-77
2021/10/21 08:41:42;;;;;;;;;;;;;;;15.30;71.33;98521.05;1724918;81;20160;-78
2021/10/21 08:44:07;;;;;;;;;;;;;;;15.07;72.16;98513.31;1747965;81;20174;-79
2021/10/21 08:46:33;;;;;;;;;;;;;;;15.07;73.25;98506.67;1752159;81;20141;-79
2021/10/21 08:49:02;;;;;;;;;;;;;;;15.16;73.41;98502.34;1728225;81;20634;-80
2021/10/21 08:51:33;;;;;;;;;;;;;;;15.20;74.09;98498.21;1752027;81;20197;-80
2021/10/21 08:54:01;;;;;;;;;;;;;;;15.23;74.94;98493.77;1749369;81;20200;-77
2021/10/21 08:56:27;;;;;;;;;;;;;;;15.07;74.96;98514.64;1752990;81;22363;-79
2021/10/21 08:58:55;;;;;;;;;;;;;;;15.07;76.63;98505.84;1748490;81;21151;-78
2021/10/21 09:01:32;;;;;;;;;;;;;;;15.10;77.35;98502.72;1750043;81;20328;-80
2021/10/21 09:06:34;;;;;;;;;;;;;;;14.94;80.01;98501.52;1747106;81;20529;-79
2021/10/21 09:08:56;;;;;;;;;;;;;;;14.92;79.58;98498.28;1742539;81;20170;-78
2021/10/21 09:11:22;;;;;;;;;;;;;;;14.96;80.40;98499.97;1753047;81;20443;-80
2021/10/21 09:13:47;;;;;;;;;;;;;;;14.85;81.63;98500.20;1737691;81;20180;-78
2021/10/21 09:16:17;;;;;;;;;;;;;;;14.91;81.96;98492.66;1740733;81;20183;-79
2021/10/21 09:18:46;;;;;;;;;;;;;;;14.74;82.18;98488.49;1737461;81;20206;-78
2021/10/21 09:21:33;;;;;;;;;;;;;;;14.70;83.23;98504.61;1738740;81;21066;-79
2021/10/21 09:24:02;;;;;;;;;;;;;;;14.67;83.73;98515.16;1732051;81;20284;-79
2021/10/21 09:26:28;;;;;;;;;;;;;;;14.50;84.83;98494.19;1731617;81;20230;-78
2021/10/21 09:28:54;;;;;;;;;;;;;;;14.52;84.67;98484.14;1734149;81;20111;-80
2021/10/21 09:31:23;;;;;;;;;;;;;;;14.54;85.21;98478.91;1738137;81;20169;-78
2021/10/21 09:33:51;;;;;;;;;;;;;;;14.40;86.43;98476.63;1708361;81;21102;-77
2021/10/21 09:36:20;;;;;;;;;;;;;;;14.36;87.13;98450.52;1739228;81;20117;-79
2021/10/21 09:38:48;;;;;;;;;;;;;;;14.25;88.15;98453.92;1739702;81;20127;-77
2021/10/21 09:41:19;;;;;;;;;;;;;;;14.07;90.33;98488.42;1742435;81;20317;-79
2021/10/21 09:43:45;;;;;;;;;;;;;;;13.91;91.02;98464.08;1739091;81;20212;-76
2021/10/21 09:46:31;;;;;;;;;;;;;;;14.00;90.41;98381.81;1705531;81;20880;-78
2021/10/21 09:49:26;;;;;;;;;;;;;;;14.02;91.41;98390.08;1741000;81;20163;-79
2021/10/21 09:51:50;;;;;;;;;;;;;;;13.89;93.02;98421.04;1738013;81;20123;-80
2021/10/21 09:54:17;;;;;;;;;;;;;;;13.92;93.06;98390.08;1734655;81;20275;-79
2021/10/21 09:56:59;;;;;;;;;;;;;;;13.93;93.87;98369.13;1735176;81;20174;-80
2021/10/21 09:59:26;;;;;;;;;;;;;;;14.04;93.54;98366.77;1739210;81;21279;-80
2021/10/21 10:01:56;;;;;;;;;;;;;;;14.11;93.56;98370.17;1729853;81;20172;-80
2021/10/21 10:04:21;;;;;;;;;;;;;;;14.13;93.42;98373.41;1741142;81;20281;-78
2021/10/21 10:06:47;;;;;;;;;;;;;;;14.08;93.27;98362.65;1738925;81;20735;-80
2021/10/21 10:09:15;;;;;;;;;;;;;;;14.12;93.36;98361.16;1707434;81;38589;-78
2021/10/21 10:11:41;;;;;;;;;;;;;;;14.17;93.67;98362.64;1733635;81;21082;-79
2021/10/21 10:14:08;;;;;;;;;;;;;;;14.21;93.29;98367.78;1732022;81;20227;-79
2021/10/21 10:16:34;;;;;;;;;;;;;;;14.16;93.00;98373.76;1728125;81;20460;-79
2021/10/21 10:19:01;;;;;;;;;;;;;;;14.08;93.68;98375.92;1734841;81;20143;-79
2021/10/21 10:21:37;;;;;;;;;;;;;;;14.06;93.63;98360.22;1711503;82;20154;-79
2021/10/21 10:24:05;;;;;;;;;;;;;;;14.13;93.62;98364.91;1735707;81;20126;-79
2021/10/21 10:26:50;;;;;;;;;;;;;;;14.10;93.17;98363.23;1732348;82;20297;-77
2021/10/21 10:29:34;;;;;;;;;;;;;;;14.04;93.08;98346.34;1735395;82;20230;-77
2021/10/21 10:32:05;;;;;;;;;;;;;;;14.06;93.57;98330.20;1717305;82;20125;-79
2021/10/21 10:34:37;;;;;;;;;;;;;;;14.02;92.58;98313.12;1735906;82;20107;-78
2021/10/21 10:37:21;;;;;;;;;;;;;;;14.04;92.46;98319.00;1735696;81;21028;-82
2021/10/21 10:39:57;;;;;;;;;;;;;;;14.08;92.25;98310.89;1736075;82;20130;-79
2021/10/21 10:42:33;;;;;;;;;;;;;;;14.06;92.24;98322.23;1737182;82;20170;-78
2021/10/21 10:45:04;;;;;;;;;;;;;;;14.08;92.33;98305.06;1715242;82;20150;-80
2021/10/21 10:47:57;;;;;;;;;;;;;;;14.09;91.46;98325.77;1729701;82;20184;-80
2021/10/21 10:50:26;;;;;;;;;;;;;;;14.05;90.87;98329.92;1729430;82;20495;-79
2021/10/21 10:52:58;;;;;;;;;;;;;;;14.05;91.03;98323.28;1731968;82;20161;-81
2021/10/21 10:55:35;;;;;;;;;;;;;;;14.10;90.87;98310.14;1737991;81;20181;-80
2021/10/21 10:58:03;;;;;;;;;;;;;;;14.11;89.31;98290.02;1733071;82;20174;-80
2021/10/21 11:00:37;;;;;;;;;;;;;;;14.13;88.83;98263.24;1736548;82;20281;-79
2021/10/21 11:03:03;;;;;;;;;;;;;;;14.21;88.88;98250.17;1719419;81;20967;-77
2021/10/21 11:05:50;;;;;;;;;;;;;;;14.24;88.70;98252.38;1730603;81;20139;-79
2021/10/21 11:08:19;;;;;;;;;;;;;;;14.35;89.02;98257.69;1734661;82;20161;-79
2021/10/21 11:10:45;;;;;;;;;;;;;;;14.38;87.89;98247.67;1730554;82;20876;-82
2021/10/21 11:13:20;;;;;;;;;;;;;;;14.47;87.97;98238.34;1731979;82;20483;-81
2021/10/21 11:15:51;;;;;;;;;;;;;;;14.57;86.06;98230.59;1719058;81;20988;-81
2021/10/21 11:18:38;;;;;;;;;;;;;;;14.63;86.28;98228.38;1721831;82;20192;-78
2021/10/21 11:21:05;;;;;;;;;;;;;;;14.67;87.02;98217.59;1717620;82;20182;-79
2021/10/21 11:23:35;;;;;;;;;;;;;;;14.77;86.54;98220.20;1686552;82;20185;-80
2021/10/21 11:26:02;;;;;;;;;;;;;;;14.76;86.67;98227.88;1720776;82;20225;-79
2021/10/21 11:28:32;;;;;;;;;;;;;;;14.83;86.33;98206.79;1722295;82;21206;-82
2021/10/21 11:30:58;;;;;;;;;;;;;;;14.81;85.74;98218.71;1717713;82;20483;-78
2021/10/21 11:33:25;;;;;;;;;;;;;;;14.85;86.00;98213.20;1713133;82;20279;-80
2021/10/21 11:35:51;;;;;;;;;;;;;;;14.91;85.74;98206.95;1720082;81;20157;-82
2021/10/21 11:38:18;;;;;;;;;;;;;;;14.94;85.75;98213.14;1720886;82;20165;-81
2021/10/21 11:40:53;;;;;;;;;;;;;;;14.96;85.76;98201.78;1719609;82;21047;-80
2021/10/21 11:43:38;;;;;;;;;;;;;;;15.07;85.88;98219.55;1693596;82;20211;-80
2021/10/21 11:46:05;;;;;;;;;;;;;;;15.12;85.09;98204.23;1717189;82;20217;-79
2021/10/21 11:48:33;;;;;;;;;;;;;;;15.24;84.74;98181.59;1719684;82;20181;-81
2021/10/21 11:50:59;;;;;;;;;;;;;;;15.27;84.82;98205.05;1689589;82;21086;-78
2021/10/21 11:53:26;;;;;;;;;;;;;;;15.40;83.21;98191.50;1718267;82;21080;-79
2021/10/21 11:55:55;;;;;;;;;;;;;;;15.54;82.31;98179.27;1719856;82;20162;-80
2021/10/21 11:58:24;;;;;;;;;;;;;;;15.54;82.61;98178.73;1715182;82;20693;-81
2021/10/21 12:00:55;;;;;;;;;;;;;;;15.64;82.02;98183.97;1714872;82;20196;-82
2021/10/21 12:03:40;;;;;;;;;;;;;;;15.62;82.09;98169.57;1717342;82;20639;-78
2021/10/21 12:06:08;;;;;;;;;;;;;;;15.61;80.97;98181.25;1686805;82;21693;-82
2021/10/21 12:08:36;;;;;;;;;;;;;;;15.67;80.68;98178.17;1721382;82;20170;-81
2021/10/21 12:11:03;;;;;;;;;;;;;;;15.69;80.77;98200.84;1717464;82;20177;-81
2021/10/21 12:13:33;;;;;;;;;;;;;;;15.74;80.08;98212.11;1718444;82;20181;-81
2021/10/21 12:16:00;;;;;;;;;;;;;;;15.86;78.91;98200.89;1739961;82;20206;-79
2021/10/21 12:18:27;;;;;;;;;;;;;;;15.85;78.35;98182.50;1743468;82;21075;-79
2021/10/21 12:20:55;;;;;;;;;;;;;;;15.92;77.90;98169.86;1741647;81;20134;-80
2021/10/21 12:23:32;;;;;;;;;;;;;;;15.94;77.00;98183.73;1742739;82;20138;-80
2021/10/21 12:26:01;;;;;;;;;;;;;;;15.99;77.27;98177.19;1745748;82;20107;-83
2021/10/21 12:28:47;;;;;;;;;;;;;;;16.05;76.74;98188.71;1742165;81;20616;-80
2021/10/21 12:31:30;;;;;;;;;;;;;;;16.05;76.18;98193.53;1743183;82;21163;-81
2021/10/21 12:33:59;;;;;;;;;;;;;;;16.14;75.87;98193.92;1740217;81;20499;-78
2021/10/21 12:36:35;;;;;;;;;;;;;;;16.15;75.26;98181.70;1743798;82;20118;-81
2021/10/21 12:39:07;;;;;;;;;;;;;;;16.14;74.76;98190.76;1742588;81;20444;-79
2021/10/21 12:42:00;;;;;;;;;;;;;;;16.28;74.57;98164.63;1739878;82;20154;-82
2021/10/21 12:44:30;;;;;;;;;;;;;;;16.31;74.04;98165.47;1741675;82;21679;-81
2021/10/21 12:47:28;;;;;;;;;;;;;;;16.37;73.68;98149.02;1738995;82;20827;-80
2021/10/21 12:50:03;;;;;;;;;;;;;;;16.46;73.05;98145.44;1738308;82;20114;-81
2021/10/21 12:52:36;;;;;;;;;;;;;;;16.54;72.76;98137.55;1741640;81;20206;-81
2021/10/21 12:55:20;;;;;;;;;;;;;;;16.54;71.79;98140.22;1734173;82;21002;-82
2021/10/21 12:57:52;;;;;;;;;;;;;;;16.53;70.87;98161.24;1743284;82;21897;-84